Time;durP1;ratioP1;P1;durP2;ratioP2;P2;SDS_P1;SDS_P2;PMS_P1;PMS_P2;Temp;Humidity;BMP_temperature;BMP_pressure;BME280_temperature;BME280_humidity;BME280_pressure;Samples;Min_cycle;Max_cycle;Signal;HPM_P1;HPM_P2
2023/04/08 00:01:12;;;;;;;23.75;12.00;;;;;;;7.90;100.00;102050.50;5026819;28;20049;-73
2023/04/08 00:03:37;;;;;;;27.05;12.60;;;;;;;7.85;100.00;102043.97;5021186;28;20037;-69
2023/04/08 00:06:03;;;;;;;21.20;12.77;;;;;;;7.88;100.00;102047.16;5015002;28;20359;-71
2023/04/08 00:08:29;;;;;;;27.13;13.35;;;;;;;7.89;100.00;102042.59;5025982;28;20109;-72
2023/04/08 00:10:54;;;;;;;32.03;13.73;;;;;;;7.92;100.00;102044.94;5034037;28;20140;-69
2023/04/08 00:13:20;;;;;;;21.30;12.77;;;;;;;7.93;100.00;102050.16;5014076;28;20643;-72
2023/04/08 00:15:45;;;;;;;27.02;14.13;;;;;;;7.94;100.00;102042.91;5023231;28;20025;-72
2023/04/08 00:18:14;;;;;;;27.45;13.25;;;;;;;7.93;100.00;102043.94;5030466;28;20045;-69
2023/04/08 00:20:39;;;;;;;23.88;12.80;;;;;;;7.92;100.00;102037.69;5027797;28;20057;-72
2023/04/08 00:23:05;;;;;;;27.30;14.05;;;;;;;7.90;100.00;102036.22;5012349;28;20413;-73
2023/04/08 00:25:30;;;;;;;25.55;14.27;;;;;;;7.89;100.00;102043.44;5014089;28;20029;-73
2023/04/08 00:27:55;;;;;;;30.92;15.15;;;;;;;7.90;100.00;102038.91;5028300;28;20029;-72
2023/04/08 00:30:21;;;;;;;26.50;14.05;;;;;;;7.92;100.00;102042.25;5022534;28;20056;-73
2023/04/08 00:32:46;;;;;;;31.35;14.75;;;;;;;7.89;100.00;102040.75;5022835;28;20064;-70
2023/04/08 00:35:11;;;;;;;27.80;14.15;;;;;;;7.87;100.00;102040.09;5015090;28;20036;-70
2023/04/08 00:37:37;;;;;;;36.10;15.70;;;;;;;7.89;100.00;102038.03;5025629;28;20033;-69
2023/04/08 00:40:03;;;;;;;30.20;15.40;;;;;;;7.91;100.00;102045.94;5032441;28;20476;-73
2023/04/08 00:42:29;;;;;;;29.50;16.00;;;;;;;7.92;100.00;102043.06;5025235;28;20105;-70
2023/04/08 00:44:55;;;;;;;28.13;15.23;;;;;;;7.95;100.00;102047.28;5022305;28;20088;-71
2023/04/08 00:47:21;;;;;;;34.05;17.15;;;;;;;7.96;100.00;102049.78;5031976;28;20029;-70
2023/04/08 00:49:46;;;;;;;29.40;16.52;;;;;;;7.98;100.00;102050.44;5031062;28;20416;-72
2023/04/08 00:52:12;;;;;;;39.72;18.23;;;;;;;7.95;100.00;102053.50;5014182;28;20046;-69
2023/04/08 00:54:37;;;;;;;32.80;16.52;;;;;;;8.00;100.00;102050.28;5009262;28;20449;-70
2023/04/08 00:57:05;;;;;;;31.08;17.48;;;;;;;7.98;100.00;102055.84;5028704;28;20029;-69
2023/04/08 00:59:31;;;;;;;32.45;16.45;;;;;;;8.01;100.00;102045.75;5033232;28;20037;-73
2023/04/08 01:02:11;;;;;;;30.35;17.90;;;;;;;7.98;100.00;102053.16;5027784;28;20029;-73
2023/04/08 01:04:36;;;;;;;36.15;18.50;;;;;;;8.01;100.00;102061.91;5032090;28;20033;-70
2023/04/08 01:07:18;;;;;;;32.58;18.30;;;;;;;7.97;100.00;102056.88;5022140;28;20471;-72
2023/04/08 01:09:51;;;;;;;30.90;18.83;;;;;;;8.01;100.00;102056.53;5011182;28;20061;-70
2023/04/08 01:12:21;;;;;;;32.10;18.60;;;;;;;8.01;100.00;102056.53;5019689;28;20021;-72
2023/04/08 01:14:51;;;;;;;35.28;19.65;;;;;;;7.99;100.00;102054.84;5021473;28;20067;-70
2023/04/08 01:17:18;;;;;;;32.20;20.40;;;;;;;7.99;100.00;102060.22;5018064;28;20025;-71
2023/04/08 01:19:46;;;;;;;32.47;19.77;;;;;;;7.98;100.00;102058.53;5031233;28;20033;-71
2023/04/08 01:22:26;;;;;;;38.88;20.13;;;;;;;7.98;100.00;102053.16;5031258;28;20104;-72
2023/04/08 01:25:00;;;;;;;35.10;20.40;;;;;;;7.96;100.00;102057.88;5031179;28;20021;-69
2023/04/08 01:27:29;;;;;;;40.42;23.02;;;;;;;7.91;100.00;102062.13;5027336;28;20029;-73
2023/04/08 01:29:55;;;;;;;41.88;22.67;;;;;;;7.92;100.00;102059.25;5021687;28;20022;-73
2023/04/08 01:32:21;;;;;;;44.33;22.45;;;;;;;7.94;100.00;102053.69;5028865;28;20785;-70
2023/04/08 01:34:47;;;;;;;39.10;21.98;;;;;;;7.97;100.00;102059.56;5031422;28;20021;-70
2023/04/08 01:37:14;;;;;;;40.05;22.10;;;;;;;7.98;100.00;102063.94;5024079;28;20030;-71
2023/04/08 01:39:40;;;;;;;39.30;22.95;;;;;;;7.98;100.00;102066.63;5012882;28;20112;-72
2023/04/08 01:42:07;;;;;;;39.90;23.45;;;;;;;7.96;100.00;102065.97;5026227;28;20037;-72
2023/04/08 01:44:34;;;;;;;40.78;23.20;;;;;;;7.99;100.00;102065.63;5031587;28;20052;-70
2023/04/08 01:47:01;;;;;;;42.60;23.52;;;;;;;7.98;100.00;102069.31;5011552;28;20116;-71
2023/04/08 01:49:28;;;;;;;44.08;23.20;;;;;;;7.96;100.00;102065.97;5023625;28;20400;-73
2023/04/08 01:51:55;;;;;;;41.65;23.60;;;;;;;7.96;100.00;102067.84;5030855;28;20504;-69
2023/04/08 01:54:21;;;;;;;40.65;24.08;;;;;;;7.93;100.00;102060.94;5032463;28;20033;-72
2023/04/08 01:56:47;;;;;;;42.67;24.50;;;;;;;7.96;100.00;102065.97;5025662;28;20430;-70
2023/04/08 01:59:15;;;;;;;47.08;24.33;;;;;;;7.95;100.00;102064.28;5017194;28;20076;-70
2023/04/08 02:01:43;;;;;;;38.65;23.33;;;;;;;7.93;100.00;102058.25;5008605;28;20117;-70
2023/04/08 02:04:08;;;;;;;41.72;25.08;;;;;;;7.94;100.00;102062.63;5014082;28;20030;-72
2023/04/08 02:06:35;;;;;;;40.42;24.98;;;;;;;7.95;100.00;102069.66;5022594;28;20047;-70
2023/04/08 02:09:00;;;;;;;49.03;26.98;;;;;;;7.97;100.00;102070.34;5017758;28;20104;-70
2023/04/08 02:11:27;;;;;;;47.47;24.40;;;;;;;7.93;100.00;102063.63;5030938;28;20866;-71
2023/04/08 02:13:53;;;;;;;42.00;26.05;;;;;;;7.96;100.00;102060.59;5032981;28;20029;-73
2023/04/08 02:16:28;;;;;;;36.50;24.58;;;;;;;7.96;100.00;102063.28;5027193;28;20096;-69
2023/04/08 02:19:08;;;;;;;43.38;26.52;;;;;;;7.96;100.00;102068.66;5016439;28;20029;-71
2023/04/08 02:21:42;;;;;;;48.15;26.08;;;;;;;7.94;100.00;102068.00;5019060;28;20033;-73
2023/04/08 02:24:12;;;;;;;46.88;27.50;;;;;;;7.96;100.00;102060.59;5023079;28;20038;-70
2023/04/08 02:26:38;;;;;;;42.33;24.30;;;;;;;7.96;100.00;102070.53;5015678;28;20026;-70
2023/04/08 02:29:05;;;;;;;45.10;26.85;;;;;;;7.95;100.00;102069.66;5027886;28;20025;-70
2023/04/08 02:31:32;;;;;;;50.35;26.58;;;;;;;7.92;100.00;102074.59;5029113;28;20057;-70
2023/04/08 02:33:58;;;;;;;41.30;26.70;;;;;;;7.89;100.00;102070.38;5016195;28;20033;-70
2023/04/08 02:36:24;;;;;;;42.75;27.38;;;;;;;7.91;100.00;102076.47;5015955;28;20029;-72
2023/04/08 02:38:50;;;;;;;43.53;24.75;;;;;;;7.93;100.00;102069.03;5034304;28;20464;-69
2023/04/08 02:41:15;;;;;;;46.25;28.38;;;;;;;7.91;100.00;102075.59;5030831;28;20033;-73
2023/04/08 02:43:41;;;;;;;48.97;28.52;;;;;;;7.89;100.00;102075.78;5022591;28;20034;-71
2023/04/08 02:46:07;;;;;;;44.90;27.33;;;;;;;7.91;100.00;102084.53;5027745;28;20092;-73
2023/04/08 02:48:32;;;;;;;42.38;28.55;;;;;;;7.89;100.00;102078.47;5031437;28;20036;-70
2023/04/08 02:50:58;;;;;;;46.88;29.42;;;;;;;7.87;100.00;102077.81;5035596;28;20050;-73
2023/04/08 02:53:24;;;;;;;46.28;28.67;;;;;;;7.88;100.00;102079.50;5035403;28;20471;-73
2023/04/08 02:55:49;;;;;;;49.42;30.80;;;;;;;7.86;100.00;102078.81;5035570;28;20088;-72
2023/04/08 02:58:14;;;;;;;47.88;28.38;;;;;;;7.84;100.00;102083.56;5033143;28;20022;-70
2023/04/08 03:00:40;;;;;;;48.50;30.88;;;;;;;7.80;100.00;102088.47;5024561;28;20033;-72
2023/04/08 03:03:06;;;;;;;47.85;30.50;;;;;;;7.78;100.00;102085.09;5020290;28;20029;-71
2023/04/08 03:05:31;;;;;;;49.08;29.88;;;;;;;7.74;100.00;102089.16;5035324;28;20029;-72
2023/04/08 03:07:56;;;;;;;50.80;31.15;;;;;;;7.70;100.00;102085.16;5018604;28;20030;-72
2023/04/08 03:10:22;;;;;;;44.55;29.70;;;;;;;7.73;100.00;102087.50;5015085;28;20036;-71
2023/04/08 03:12:47;;;;;;;47.90;31.33;;;;;;;7.72;100.00;102084.97;5028437;28;20063;-71
2023/04/08 03:15:12;;;;;;;53.08;30.15;;;;;;;7.72;100.00;102087.66;5032640;28;20036;-72
2023/04/08 03:17:38;;;;;;;51.85;31.20;;;;;;;7.73;100.00;102089.34;5025416;28;20112;-70
2023/04/08 03:20:04;;;;;;;52.95;30.90;;;;;;;7.73;100.00;102089.34;5035224;28;20083;-71
2023/04/08 03:22:29;;;;;;;61.90;32.80;;;;;;;7.73;100.00;102087.50;5032673;28;20036;-70
2023/04/08 03:24:54;;;;;;;53.63;30.88;;;;;;;7.74;100.00;102085.63;5032241;28;20518;-70
2023/04/08 03:27:20;;;;;;;53.00;30.38;;;;;;;7.77;100.00;102088.81;5033778;28;20025;-69
2023/04/08 03:29:45;;;;;;;56.25;31.83;;;;;;;7.76;100.00;102087.16;5027309;28;20029;-73
2023/04/08 03:32:11;;;;;;;55.42;32.67;;;;;;;7.80;100.00;102090.31;5023563;28;20028;-72
2023/04/08 03:34:36;;;;;;;62.42;32.75;;;;;;;7.77;100.00;102085.28;5020330;28;20030;-71
2023/04/08 03:37:02;;;;;;;54.72;31.05;;;;;;;7.80;100.00;102095.69;5029938;28;20517;-71
2023/04/08 03:39:27;;;;;;;63.05;34.03;;;;;;;7.84;100.00;102099.72;5027067;28;20014;-72
2023/04/08 03:41:52;;;;;;;63.55;33.00;;;;;;;7.84;100.00;102093.50;5033420;28;20476;-72
2023/04/08 03:44:18;;;;;;;56.50;32.38;;;;;;;7.86;100.00;102094.16;5023071;28;20033;-72
2023/04/08 03:46:43;;;;;;;63.92;33.70;;;;;;;7.81;100.00;102094.69;5032269;28;20071;-70
2023/04/08 03:49:08;;;;;;;63.72;31.80;;;;;;;7.81;100.00;102082.06;5024477;28;20029;-71
2023/04/08 03:51:34;;;;;;;67.53;33.88;;;;;;;7.81;100.00;102083.91;5033074;28;20453;-73
2023/04/08 03:53:59;;;;;;;57.17;32.20;;;;;;;7.78;100.00;102089.66;5033255;28;20471;-71
2023/04/08 03:56:24;;;;;;;60.28;31.27;;;;;;;7.78;100.00;102095.06;5033260;28;20519;-70
2023/04/08 03:58:50;;;;;;;47.75;30.33;;;;;;;7.80;100.00;102106.47;5028067;28;20044;-72
2023/04/08 04:01:15;;;;;;;58.88;30.92;;;;;;;7.78;100.00;102100.44;5010121;28;20029;-70
2023/04/08 04:03:41;;;;;;;67.88;32.45;;;;;;;7.78;100.00;102100.44;5014457;28;20029;-73
2023/04/08 04:06:06;;;;;;;61.53;33.35;;;;;;;7.79;100.00;102097.56;5023210;28;20026;-73
2023/04/08 04:08:31;;;;;;;63.08;32.08;;;;;;;7.80;100.00;102090.31;5032937;28;20068;-69
2023/04/08 04:10:58;;;;;;;65.95;34.03;;;;;;;7.77;100.00;102094.19;5031867;28;20025;-70
2023/04/08 04:13:23;;;;;;;63.60;35.05;;;;;;;7.77;100.00;102096.06;5028064;28;20037;-69
2023/04/08 04:15:49;;;;;;;69.53;34.63;;;;;;;7.81;100.00;102100.09;5031159;28;20048;-71
2023/04/08 04:18:14;;;;;;;61.70;32.35;;;;;;;7.82;100.00;102091.00;5032547;28;20427;-73
2023/04/08 04:20:43;;;;;;;68.97;34.45;;;;;;;7.81;100.00;102105.47;5023690;28;20515;-70
2023/04/08 04:23:09;;;;;;;65.35;32.03;;;;;;;7.80;100.00;102099.25;5025346;28;20618;-73
2023/04/08 04:25:34;;;;;;;65.45;33.67;;;;;;;7.83;100.00;102114.22;5013906;28;20052;-69
2023/04/08 04:28:00;;;;;;;71.85;36.55;;;;;;;7.81;100.00;102118.94;5013234;28;20036;-71
2023/04/08 04:30:26;;;;;;;69.72;36.03;;;;;;;7.80;100.00;102119.97;5027479;28;20029;-72
2023/04/08 04:32:52;;;;;;;60.83;35.72;;;;;;;7.80;100.00;102111.88;5032614;28;20025;-70
2023/04/08 04:35:17;;;;;;;63.63;34.47;;;;;;;7.83;100.00;102125.00;5032958;28;20069;-73
2023/04/08 04:37:42;;;;;;;75.53;36.42;;;;;;;7.80;100.00;102125.34;5027994;28;20417;-69
2023/04/08 04:40:08;;;;;;;74.95;36.95;;;;;;;7.79;100.00;102129.91;5033601;28;20445;-70
2023/04/08 04:42:33;;;;;;;80.30;35.70;;;;;;;7.83;100.00;102127.69;5031030;28;20043;-73
2023/04/08 04:44:59;;;;;;;86.70;37.50;;;;;;;7.79;100.00;102132.59;5033495;28;20416;-73
2023/04/08 04:47:28;;;;;;;78.53;34.78;;;;;;;7.80;100.00;102130.75;5032203;28;20037;-72
2023/04/08 04:49:53;;;;;;;82.88;38.83;;;;;;;7.79;100.00;102140.69;5022726;28;20040;-71
2023/04/08 04:52:18;;;;;;;85.50;39.30;;;;;;;7.78;100.00;102133.59;5029088;28;20041;-70
2023/04/08 04:54:44;;;;;;;81.75;37.10;;;;;;;7.79;100.00;102137.16;5030775;28;20033;-73
2023/04/08 04:57:10;;;;;;;79.15;38.47;;;;;;;7.79;100.00;102142.56;5032244;28;20029;-72
2023/04/08 04:59:35;;;;;;;90.18;39.63;;;;;;;7.76;100.00;102148.25;5033086;28;20368;-71
2023/04/08 05:02:01;;;;;;;92.10;39.95;;;;;;;7.77;100.00;102147.25;5014224;28;20065;-70
2023/04/08 05:04:26;;;;;;;81.40;37.38;;;;;;;7.80;100.00;102147.75;5012300;28;20084;-70
2023/04/08 05:06:52;;;;;;;77.63;37.92;;;;;;;7.76;100.00;102154.50;5024043;28;20246;-70
2023/04/08 05:09:17;;;;;;;86.20;37.88;;;;;;;7.78;100.00;102147.09;5031782;28;20104;-71
2023/04/08 05:11:42;;;;;;;63.95;34.33;;;;;;;7.78;100.00;102154.34;5031944;28;20420;-72
2023/04/08 05:14:08;;;;;;;72.20;34.67;;;;;;;7.79;100.00;102156.03;5031896;28;20055;-69
2023/04/08 05:16:34;;;;;;;59.75;33.45;;;;;;;7.76;100.00;102159.91;5029842;28;20120;-76
2023/04/08 05:18:59;;;;;;;53.67;31.77;;;;;;;7.76;100.00;102159.03;5017795;28;20026;-73
2023/04/08 05:21:26;;;;;;;51.92;30.38;;;;;;;7.77;100.00;102164.25;5020935;28;20035;-72
2023/04/08 05:23:52;;;;;;;53.88;30.48;;;;;;;7.79;100.00;102161.41;5014171;28;20030;-72
2023/04/08 05:26:20;;;;;;;53.60;31.00;;;;;;;7.76;100.00;102161.72;5013966;28;20036;-75
2023/04/08 05:28:45;;;;;;;47.22;29.67;;;;;;;7.83;100.00;102168.13;5013016;28;20032;-75
2023/04/08 05:31:11;;;;;;;49.72;29.27;;;;;;;7.85;100.00;102168.81;5012614;28;20018;-74
2023/04/08 05:33:36;;;;;;;47.30;30.45;;;;;;;7.83;100.00;102170.81;5011546;28;20121;-71
2023/04/08 05:36:01;;;;;;;48.55;30.33;;;;;;;7.87;100.00;102168.63;5012729;28;20404;-71
2023/04/08 05:38:26;;;;;;;49.75;29.67;;;;;;;7.84;100.00;102169.81;5011886;28;20037;-71
2023/04/08 05:40:52;;;;;;;45.63;29.83;;;;;;;7.82;100.00;102171.84;5017644;28;20378;-74
2023/04/08 05:43:17;;;;;;;46.35;28.52;;;;;;;7.86;100.00;102172.31;5032418;28;20021;-72
2023/04/08 05:45:42;;;;;;;45.28;27.00;;;;;;;7.88;100.00;102170.28;5032784;28;20025;-73
2023/04/08 05:48:08;;;;;;;46.47;29.23;;;;;;;7.87;100.00;102174.84;5031086;28;20025;-73
2023/04/08 05:50:34;;;;;;;45.67;29.42;;;;;;;7.89;100.00;102178.19;5031697;28;20029;-72
2023/04/08 05:52:59;;;;;;;44.50;28.88;;;;;;;7.93;100.00;102176.00;5030084;28;20441;-72
2023/04/08 05:55:25;;;;;;;40.20;26.85;;;;;;;7.97;100.00;102183.56;5031023;28;20031;-72
2023/04/08 05:57:50;;;;;;;46.08;26.92;;;;;;;7.99;100.00;102186.91;5032421;28;20026;-72
2023/04/08 06:00:17;;;;;;;49.30;29.40;;;;;;;7.99;100.00;102192.31;5032018;28;20025;-75
2023/04/08 06:02:42;;;;;;;48.05;28.85;;;;;;;8.01;100.00;102188.59;5028835;28;20423;-72
2023/04/08 06:05:08;;;;;;;47.70;30.08;;;;;;;8.01;100.00;102192.13;5030029;28;20026;-74
2023/04/08 06:07:33;;;;;;;49.38;29.65;;;;;;;8.02;100.00;102192.97;5017227;28;20029;-70
2023/04/08 06:09:58;;;;;;;47.08;28.98;;;;;;;8.03;100.00;102189.25;5011086;28;20037;-70
2023/04/08 06:12:24;;;;;;;44.72;29.52;;;;;;;8.06;100.00;102199.69;5013863;28;20053;-71
2023/04/08 06:14:53;;;;;;;48.20;28.23;;;;;;;8.05;100.00;102198.88;5031067;28;20026;-74
2023/04/08 06:17:18;;;;;;;47.83;30.98;;;;;;;8.01;100.00;102205.63;5032204;28;20029;-72
2023/04/08 06:19:44;;;;;;;41.42;28.77;;;;;;;8.03;100.00;102209.00;5031889;28;20105;-74
2023/04/08 06:22:09;;;;;;;32.67;23.60;;;;;;;8.00;100.00;102206.63;5024125;28;20425;-75
2023/04/08 06:24:35;;;;;;;39.50;28.60;;;;;;;7.96;100.00;102208.84;5010985;28;20030;-70
2023/04/08 06:27:00;;;;;;;43.97;29.02;;;;;;;8.04;100.00;102213.34;5012574;28;20033;-71
2023/04/08 06:29:25;;;;;;;39.50;26.80;;;;;;;8.07;100.00;102217.56;5012262;28;20117;-72
2023/04/08 06:31:51;;;;;;;38.72;26.77;;;;;;;8.06;100.00;102221.25;5011452;28;20516;-75
2023/04/08 06:34:16;;;;;;;26.73;19.90;;;;;;;8.05;100.00;102219.59;5010294;28;20037;-72
2023/04/08 06:36:44;;;;;;;28.25;19.70;;;;;;;8.07;100.00;102233.75;5011271;28;20025;-76
2023/04/08 06:39:09;;;;;;;27.23;18.40;;;;;;;8.04;100.00;102239.47;5010375;28;20018;-71
2023/04/08 06:41:38;;;;;;;23.10;17.95;;;;;;;8.01;100.00;102240.66;5011536;28;20009;-75
2023/04/08 06:44:03;;;;;;;23.77;18.67;;;;;;;7.99;100.00;102235.44;5011485;28;20018;-74
2023/04/08 06:46:28;;;;;;;30.50;22.40;;;;;;;8.06;100.00;102237.44;5013495;28;20030;-70
2023/04/08 06:48:54;;;;;;;27.45;20.92;;;;;;;8.08;100.00;102236.25;5021280;28;20056;-72
2023/04/08 06:51:20;;;;;;;30.13;20.48;;;;;;;8.11;100.00;102240.47;5027642;28;20052;-70
2023/04/08 06:53:45;;;;;;;27.80;20.42;;;;;;;8.14;100.00;102240.94;5031294;28;20030;-72
2023/04/08 06:56:10;;;;;;;27.77;22.17;;;;;;;8.10;100.00;102245.00;5031296;28;20026;-71
2023/04/08 06:58:36;;;;;;;28.52;21.00;;;;;;;8.05;100.00;102249.25;5031753;28;20032;-69
2023/04/08 07:01:02;;;;;;;30.50;21.98;;;;;;;8.10;100.00;102244.16;5032871;28;20036;-69
2023/04/08 07:03:27;;;;;;;26.88;21.17;;;;;;;8.15;100.00;102255.25;5032369;28;20029;-71
2023/04/08 07:05:52;;;;;;;27.13;21.42;;;;;;;8.18;100.00;102251.38;5028996;28;20473;-73
2023/04/08 07:08:18;;;;;;;25.70;20.15;;;;;;;8.18;100.00;102263.00;5033602;28;20372;-72
2023/04/08 07:10:43;;;;;;;27.63;20.90;;;;;;;8.14;100.00;102264.38;5032910;28;20048;-71
2023/04/08 07:13:09;;;;;;;26.38;20.55;;;;;;;8.15;100.00;102263.34;5033530;28;20071;-72
2023/04/08 07:15:35;;;;;;;27.73;19.98;;;;;;;8.22;100.00;102263.50;5033392;28;20353;-70
2023/04/08 07:18:00;;;;;;;25.65;20.60;;;;;;;8.21;100.00;102268.03;5034550;28;20076;-72
2023/04/08 07:20:25;;;;;;;26.15;20.30;;;;;;;8.18;100.00;102278.34;5028179;28;20048;-71
2023/04/08 07:22:51;;;;;;;26.90;21.30;;;;;;;8.12;100.00;102277.19;5034244;28;20160;-70
2023/04/08 07:25:16;;;;;;;25.45;19.98;;;;;;;8.12;100.00;102280.75;5034534;28;20444;-73
2023/04/08 07:27:42;;;;;;;25.35;21.08;;;;;;;8.13;100.00;102281.56;5034391;28;20365;-71
2023/04/08 07:30:07;;;;;;;28.33;21.10;;;;;;;8.13;100.00;102284.28;5034134;28;20122;-71
2023/04/08 07:32:33;;;;;;;25.02;19.40;;;;;;;8.19;100.00;102288.97;5034320;28;20017;-73
2023/04/08 07:35:00;;;;;;;23.95;20.52;;;;;;;8.16;100.00;102295.53;5028050;28;20022;-71
2023/04/08 07:37:26;;;;;;;26.20;21.27;;;;;;;8.15;100.00;102293.00;5023221;28;20100;-73
2023/04/08 07:39:51;;;;;;;27.65;20.98;;;;;;;8.21;100.00;102295.00;5025345;28;20112;-73
2023/04/08 07:42:17;;;;;;;27.13;21.70;;;;;;;8.27;100.00;102291.66;5012693;28;20061;-71
2023/04/08 07:44:44;;;;;;;26.15;20.73;;;;;;;8.31;100.00;102297.53;5014117;28;20053;-71
2023/04/08 07:47:10;;;;;;;26.63;22.05;;;;;;;8.36;100.00;102287.03;5014378;28;20026;-70
2023/04/08 07:49:36;;;;;;;26.20;21.65;;;;;;;8.38;100.00;102301.22;5014114;28;20029;-73
2023/04/08 07:52:01;;;;;;;25.13;20.63;;;;;;;8.40;100.00;102296.47;5013551;28;20045;-76
2023/04/08 07:54:27;;;;;;;24.98;19.70;;;;;;;8.36;100.00;102307.78;5016493;28;20086;-73
2023/04/08 07:56:52;;;;;;;24.00;20.48;;;;;;;8.24;100.00;102302.75;5033881;28;20104;-72
2023/04/08 07:59:17;;;;;;;24.55;20.60;;;;;;;8.25;100.00;102304.44;5033463;28;20108;-74
2023/04/08 08:01:42;;;;;;;24.63;20.80;;;;;;;8.30;100.00;102312.88;5029916;28;20037;-70
2023/04/08 08:04:08;;;;;;;27.77;20.67;;;;;;;8.34;100.00;102308.78;5032256;28;20510;-71
2023/04/08 08:06:33;;;;;;;25.48;21.33;;;;;;;8.37;100.00;102314.88;5026365;28;20393;-71
2023/04/08 08:08:59;;;;;;;27.05;21.23;;;;;;;8.35;100.00;102317.75;5015068;28;20025;-77
2023/04/08 08:11:28;;;;;;;24.42;20.08;;;;;;;8.34;100.00;102316.88;5014286;28;20026;-79
2023/04/08 08:13:54;;;;;;;26.48;21.00;;;;;;;8.34;100.00;102329.53;5019367;28;20117;-77
2023/04/08 08:16:19;;;;;;;26.83;21.85;;;;;;;8.41;100.00;102329.66;5013982;28;20102;-77
2023/04/08 08:18:47;;;;;;;27.02;22.65;;;;;;;8.40;100.00;102325.31;5012721;28;20033;-75
2023/04/08 08:21:13;;;;;;;26.45;21.40;;;;;;;8.40;100.00;102336.94;5014312;28;20030;-74
2023/04/08 08:23:38;;;;;;;26.92;22.85;;;;;;;8.46;100.00;102319.25;5013961;28;20572;-70
2023/04/08 08:26:08;;;;;;;24.33;21.35;;;;;;;8.44;100.00;102327.53;5014249;28;20092;-80
2023/04/08 08:28:33;;;;;;;23.67;20.20;;;;;;;8.51;100.00;102338.44;5020981;28;20368;-75
2023/04/08 08:30:59;;;;;;;24.55;19.58;;;;;;;8.56;100.00;102336.06;5014488;28;20105;-73
2023/04/08 08:33:24;;;;;;;24.75;20.58;;;;;;;8.56;100.00;102336.06;5018723;28;20017;-76
2023/04/08 08:35:50;;;;;;;24.08;20.23;;;;;;;8.65;100.00;102335.03;5033636;28;20449;-75
2023/04/08 08:38:17;;;;;;;27.63;23.10;;;;;;;8.73;100.00;102341.41;5033459;28;20022;-78
2023/04/08 08:40:49;;;;;;;26.40;22.50;;;;;;;8.79;100.00;102338.00;5014317;28;20034;-74
2023/04/08 08:43:14;;;;;;;26.33;21.73;;;;;;;8.85;100.00;102342.69;5014243;28;20033;-72
2023/04/08 08:45:40;;;;;;;28.45;23.02;;;;;;;8.83;100.00;102339.31;5013996;28;20095;-73
2023/04/08 08:48:10;;;;;;;25.55;22.17;;;;;;;8.76;100.00;102343.75;5021965;28;20033;-78
2023/04/08 08:50:35;;;;;;;28.88;22.13;;;;;;;8.78;100.00;102347.09;5031982;28;20047;-74
2023/04/08 08:53:04;;;;;;;24.60;21.00;;;;;;;8.68;100.00;102355.41;5030226;28;20037;-77
2023/04/08 08:56:00;;;;;;;25.30;20.88;;;;;;;8.66;100.00;102352.88;5014370;28;20037;-81
2023/04/08 08:58:29;;;;;;;27.92;22.67;;;;;;;8.58;100.00;102350.22;5018573;28;20029;-76
2023/04/08 09:00:59;;;;;;;25.92;21.92;;;;;;;8.50;100.00;102358.38;5034877;28;20045;-75
2023/04/08 09:03:31;;;;;;;25.85;21.65;;;;;;;8.52;100.00;102361.72;5025290;28;20037;-76
2023/04/08 09:05:59;;;;;;;25.90;21.08;;;;;;;8.46;100.00;102357.84;5033084;28;20025;-75
2023/04/08 09:08:36;;;;;;;29.42;22.95;;;;;;;8.58;100.00;102360.19;5015682;28;20037;-75
2023/04/08 09:11:21;;;;;;;30.67;23.88;;;;;;;8.65;100.00;102361.16;5011963;28;20034;-74
2023/04/08 09:13:52;;;;;;;30.33;24.77;;;;;;;8.66;100.00;102370.94;5013034;28;20033;-76
2023/04/08 09:16:26;;;;;;;30.30;24.52;;;;;;;8.73;100.00;102368.41;5012850;28;20026;-76
2023/04/08 09:19:18;;;;;;;32.40;25.50;;;;;;;8.79;100.00;102373.09;5013206;28;20036;-76
2023/04/08 09:21:54;;;;;;;34.45;27.45;;;;;;;8.74;100.00;102365.53;5006112;28;20092;-77
2023/04/08 09:25:00;;;;;;;33.58;26.88;;;;;;;8.82;100.00;102378.13;5017917;28;20377;-76
2023/04/08 09:28:07;;;;;;;33.88;27.65;;;;;;;8.78;100.00;102374.94;5032796;28;20075;-76
2023/04/08 09:30:34;;;;;;;34.75;25.95;;;;;;;8.87;100.00;102375.72;4987372;28;20031;-77
2023/04/08 09:46:45;;;;;;;33.22;25.35;;;;;;;8.87;100.00;102375.72;5040265;28;20039;-75
2023/04/08 09:49:54;;;;;;;28.45;24.38;;;;;;;8.93;100.00;102385.81;5031559;28;20413;-75
2023/04/08 09:52:57;;;;;;;;;;;;;;;;;;;;;
2023/04/08 09:55:28;;;;;;;27.58;22.38;;;;;;;8.83;100.00;102387.88;5009041;28;20380;-76
2023/04/08 10:01:23;;;;;;;24.23;21.55;;;;;;;8.86;100.00;102388.41;5027091;28;20079;-77
2023/04/08 10:03:56;;;;;;;23.52;21.02;;;;;;;8.82;100.00;102400.56;5020764;28;20124;-76
2023/04/08 10:06:27;;;;;;;24.83;22.23;;;;;;;8.74;100.00;102397.03;5030939;28;20021;-76
2023/04/08 10:09:00;;;;;;;24.63;21.98;;;;;;;8.76;100.00;102395.88;5017856;28;20060;-76
2023/04/08 10:11:26;;;;;;;23.80;21.30;;;;;;;8.84;100.00;102394.97;5041686;28;20022;-75
2023/04/08 10:14:04;;;;;;;25.92;23.15;;;;;;;8.91;100.00;102397.81;5027946;28;20235;-76
2023/04/08 10:16:30;;;;;;;24.55;22.02;;;;;;;8.87;100.00;102394.63;5030703;28;20056;-76
2023/04/08 10:18:59;;;;;;;25.13;22.42;;;;;;;8.94;100.00;102398.31;5030760;28;20049;-76
2023/04/08 10:21:38;;;;;;;24.65;22.00;;;;;;;8.99;100.00;102401.31;5030681;28;20112;-75
2023/04/08 10:24:23;;;;;;;24.63;22.10;;;;;;;8.94;100.00;102403.72;5030950;28;20017;-76
2023/04/08 10:27:10;;;;;;;24.73;22.15;;;;;;;8.94;100.00;102398.31;5018124;28;20429;-76
2023/04/08 10:29:47;;;;;;;24.63;22.02;;;;;;;9.11;100.00;102392.84;5010065;28;20025;-78
2023/04/08 10:39:37;;;;;;;24.05;21.45;;;;;;;9.46;100.00;102390.59;4973820;28;20494;-75
2023/04/08 10:45:42;;;;;;;25.00;22.33;;;;;;;9.70;100.00;102387.69;4935530;29;20443;-79
2023/04/08 10:48:17;;;;;;;24.90;22.30;;;;;;;9.79;100.00;102388.47;4919169;29;20031;-75
2023/04/08 10:51:04;;;;;;;23.42;21.08;;;;;;;9.84;100.00;102393.31;4984755;28;20040;-75
2023/04/08 10:53:38;;;;;;;24.25;21.92;;;;;;;9.89;100.00;102375.53;5014432;28;20026;-74
2023/04/08 10:56:14;;;;;;;26.45;22.85;;;;;;;10.04;100.00;102388.25;5015502;28;20079;-77
2023/04/08 10:59:41;;;;;;;24.35;21.88;;;;;;;10.25;100.00;102379.41;5026092;28;20048;-76
2023/04/08 11:02:20;;;;;;;24.27;21.77;;;;;;;9.93;100.00;102374.16;5013364;28;20030;-76
2023/04/08 11:04:47;;;;;;;24.52;22.10;;;;;;;9.90;100.00;102366.41;5025480;28;20076;-75
2023/04/08 11:07:33;;;;;;;24.67;22.13;;;;;;;9.92;100.00;102374.34;5015411;28;20026;-79
2023/04/08 11:10:04;;;;;;;24.30;21.80;;;;;;;9.84;100.00;102371.69;5020853;28;20087;-77
2023/04/08 11:13:14;;;;;;;;;;;;;;;;;;;;;
2023/04/08 11:19:18;;;;;;;23.38;20.88;;;;;;;9.85;100.00;102371.50;4989851;28;20109;-75
2023/04/08 11:21:55;;;;;;;23.73;21.40;;;;;;;9.89;100.00;102358.50;5013657;28;20057;-78
2023/04/08 11:24:21;;;;;;;25.00;22.50;;;;;;;10.10;100.00;102355.91;5015135;28;20028;-73
2023/04/08 11:26:46;;;;;;;24.23;21.92;;;;;;;10.27;100.00;102361.97;5014907;28;20022;-76
2023/04/08 11:29:15;;;;;;;24.40;21.83;;;;;;;10.24;100.00;102361.50;5034570;28;20082;-76
2023/04/08 11:31:46;;;;;;;24.48;22.02;;;;;;;10.32;100.00;102363.28;5026896;28;20036;-76
2023/04/08 11:34:11;;;;;;;22.75;20.55;;;;;;;10.38;100.00;102358.00;5032588;28;20071;-76
2023/04/08 11:36:40;;;;;;;24.02;21.50;;;;;;;10.41;100.00;102357.63;5029560;28;20483;-73
2023/04/08 11:39:10;;;;;;;23.60;21.25;;;;;;;10.53;100.00;102359.88;5030668;28;20371;-79
2023/04/08 11:41:38;;;;;;;23.45;21.05;;;;;;;10.55;100.00;102361.38;5015071;28;20021;-76
2023/04/08 11:44:07;;;;;;;23.63;21.38;;;;;;;10.67;100.00;102355.47;5029758;28;20057;-76
2023/04/08 11:46:34;;;;;;;23.08;20.77;;;;;;;10.65;100.00;102361.06;5013042;28;20461;-74
2023/04/08 11:49:06;;;;;;;23.33;21.02;;;;;;;10.69;100.00;102365.06;5016508;28;20049;-76